createdAt,value
2024-05-09T00:01:15.652Z,12.80
2024-05-09T00:03:47.010Z,12.90
2024-05-09T00:06:17.730Z,13.20
2024-05-09T00:08:48.081Z,13.20
2024-05-09T00:11:20.828Z,13.10
2024-05-09T00:13:54.046Z,13.20
2024-05-09T00:16:24.598Z,13.20
2024-05-09T00:18:55.228Z,13.40
2024-05-09T00:21:25.846Z,13.40
2024-05-09T00:23:56.198Z,13.40
2024-05-09T00:26:27.964Z,13.50
2024-05-09T00:29:00.992Z,13.20
2024-05-09T00:31:31.900Z,13.00
2024-05-09T00:34:02.319Z,13.20
2024-05-09T00:36:32.914Z,13.40
2024-05-09T00:39:03.520Z,13.40
2024-05-09T00:41:34.165Z,13.40
2024-05-09T00:44:08.477Z,13.40
2024-05-09T00:46:39.116Z,13.40
2024-05-09T00:49:10.131Z,13.30
2024-05-09T00:51:44.719Z,13.40
2024-05-09T00:54:15.095Z,13.50
2024-05-09T00:56:46.017Z,13.30
2024-05-09T00:59:19.664Z,13.10
2024-05-09T01:01:50.561Z,13.10
2024-05-09T01:04:21.205Z,13.10
2024-05-09T01:06:51.681Z,13.10
2024-05-09T01:09:22.190Z,12.90
2024-05-09T01:11:52.730Z,12.90
2024-05-09T01:14:25.893Z,12.80
2024-05-09T01:16:56.574Z,12.90
2024-05-09T01:19:31.610Z,12.90
2024-05-09T01:22:02.431Z,12.90
2024-05-09T01:24:35.494Z,12.90
2024-05-09T01:27:06.019Z,13.00
2024-05-09T01:29:37.039Z,13.10
2024-05-09T01:32:08.202Z,13.00
2024-05-09T01:34:38.813Z,12.90
2024-05-09T01:37:09.329Z,13.00
2024-05-09T01:39:42.387Z,12.90
2024-05-09T01:42:12.812Z,12.70
2024-05-09T01:44:43.543Z,12.60
2024-05-09T01:47:14.199Z,12.60
2024-05-09T01:49:44.664Z,12.60
2024-05-09T01:52:15.316Z,12.50
2024-05-09T01:54:48.395Z,12.50
2024-05-09T01:57:18.995Z,12.50
2024-05-09T01:59:49.366Z,12.50
2024-05-09T02:02:19.830Z,12.60
2024-05-09T02:04:50.636Z,12.60
2024-05-09T02:07:21.395Z,12.60
2024-05-09T02:09:55.598Z,12.60
2024-05-09T02:12:26.183Z,12.60
2024-05-09T02:14:56.775Z,12.60
2024-05-09T02:17:27.301Z,12.60
2024-05-09T02:19:57.883Z,12.70
2024-05-09T02:22:28.243Z,12.70
2024-05-09T02:25:01.364Z,12.50
2024-05-09T02:27:31.846Z,12.30
2024-05-09T02:30:02.267Z,12.40
2024-05-09T02:32:32.774Z,12.40
2024-05-09T02:35:03.474Z,12.30
2024-05-09T02:37:31.184Z,12.40
2024-05-09T02:40:05.543Z,12.30
2024-05-09T02:42:34.281Z,12.40
2024-05-09T02:45:04.859Z,12.30
2024-05-09T02:47:32.803Z,12.10
2024-05-09T02:50:04.610Z,12.10
2024-05-09T02:52:33.745Z,12.00
2024-05-09T02:55:06.972Z,12.10
2024-05-09T02:57:34.755Z,11.80
2024-05-09T03:00:06.190Z,11.80
2024-05-09T03:02:35.757Z,11.80
2024-05-09T03:05:06.366Z,11.70
2024-05-09T03:07:34.039Z,11.60
2024-05-09T03:10:14.904Z,11.70
2024-05-09T03:12:50.215Z,11.60
2024-05-09T03:15:22.639Z,11.60
2024-05-09T03:17:50.493Z,11.60
2024-05-09T03:20:24.301Z,11.70
2024-05-09T03:22:58.510Z,11.70
2024-05-09T03:25:31.665Z,11.70
2024-05-09T03:27:59.546Z,11.70
2024-05-09T03:30:39.107Z,11.70
2024-05-09T03:33:11.242Z,11.70
2024-05-09T03:35:42.259Z,11.60
2024-05-09T03:38:12.733Z,11.60
2024-05-09T03:40:51.748Z,11.60
2024-05-09T03:43:23.028Z,11.60
2024-05-09T03:45:53.776Z,11.60
2024-05-09T03:48:21.745Z,11.60
2024-05-09T03:50:52.463Z,11.60
2024-05-09T03:53:20.275Z,11.50
2024-05-09T03:55:53.447Z,11.40
2024-05-09T03:58:21.120Z,11.40
2024-05-09T04:00:51.675Z,11.40
2024-05-09T04:03:20.070Z,11.40
2024-05-09T04:05:50.642Z,11.30
2024-05-09T04:08:18.456Z,11.30
2024-05-09T04:10:49.287Z,11.30
2024-05-09T04:13:19.837Z,11.40
2024-05-09T04:15:50.455Z,11.20
2024-05-09T04:18:18.302Z,11.20
2024-05-09T04:20:49.384Z,11.20
2024-05-09T04:23:17.344Z,11.10
2024-05-09T04:25:48.164Z,11.20
2024-05-09T04:28:16.563Z,11.30
2024-05-09T04:30:49.710Z,11.40
2024-05-09T04:33:20.399Z,11.40
2024-05-09T04:35:51.406Z,11.40
2024-05-09T04:38:19.534Z,11.50
2024-05-09T04:40:49.950Z,11.50
2024-05-09T04:43:19.745Z,11.50
2024-05-09T04:45:53.237Z,11.50
2024-05-09T04:48:21.275Z,11.20
2024-05-09T04:50:51.714Z,10.70
2024-05-09T04:53:19.720Z,10.90
2024-05-09T04:55:50.260Z,11.00
2024-05-09T04:58:18.091Z,10.90
2024-05-09T05:00:48.702Z,11.10
2024-05-09T05:03:19.367Z,11.20
2024-05-09T05:05:50.049Z,10.90
2024-05-09T05:08:19.448Z,11.20
2024-05-09T05:10:51.058Z,11.30
2024-05-09T05:13:23.919Z,11.40
2024-05-09T05:15:57.714Z,11.50
2024-05-09T05:18:28.869Z,11.70
2024-05-09T05:21:00.712Z,11.80
2024-05-09T05:23:28.668Z,11.80
2024-05-09T05:25:59.275Z,11.90
2024-05-09T05:28:27.044Z,12.10
2024-05-09T05:30:57.395Z,12.10
2024-05-09T05:33:28.667Z,12.10
2024-05-09T05:35:59.744Z,12.20
2024-05-09T05:38:28.584Z,12.20
2024-05-09T05:40:59.389Z,12.00
2024-05-09T05:43:27.261Z,12.20
2024-05-09T05:45:58.085Z,12.40
2024-05-09T05:48:31.837Z,12.40
2024-05-09T05:51:04.343Z,12.40
2024-05-09T05:53:32.731Z,12.40
2024-05-09T05:56:03.326Z,12.20
2024-05-09T05:58:31.033Z,12.30
2024-05-09T06:01:01.449Z,12.40
2024-05-09T06:03:32.067Z,12.60
2024-05-09T06:06:06.322Z,12.70
2024-05-09T06:08:34.151Z,12.80
2024-05-09T06:11:04.901Z,12.70
2024-05-09T06:13:32.800Z,12.60
2024-05-09T06:16:04.994Z,12.80
2024-05-09T06:18:35.783Z,12.70
2024-05-09T06:21:06.777Z,12.60
2024-05-09T06:23:34.646Z,12.70
2024-05-09T06:26:05.213Z,12.90
2024-05-09T06:28:33.234Z,13.00
2024-05-09T06:31:05.344Z,13.20
2024-05-09T06:33:36.056Z,13.00
2024-05-09T06:36:06.611Z,13.10
2024-05-09T06:38:34.519Z,13.00
2024-05-09T06:41:07.228Z,13.10
2024-05-09T06:43:35.517Z,13.40
2024-05-09T06:46:06.064Z,13.60
2024-05-09T07:06:55.224Z,14.00
2024-05-09T07:09:22.990Z,14.20
2024-05-09T07:11:53.575Z,14.20
2024-05-09T07:14:21.462Z,14.10
2024-05-09T07:16:52.254Z,14.20
2024-05-09T07:19:20.383Z,14.30
2024-05-09T07:21:51.595Z,14.40
2024-05-09T07:24:21.947Z,14.50
2024-05-09T07:26:52.245Z,14.40
2024-05-09T07:29:20.470Z,14.40
2024-05-09T07:31:50.987Z,14.40
2024-05-09T07:34:19.076Z,14.40
2024-05-09T07:36:50.452Z,14.30
2024-05-09T07:39:22.821Z,14.30
2024-05-09T07:41:53.475Z,14.40
2024-05-09T07:44:21.408Z,14.60
2024-05-09T07:48:13.600Z,14.70
2024-05-09T07:53:29.896Z,15.00
2024-05-09T07:55:07.177Z,15.20
2024-05-09T07:57:37.861Z,15.30
2024-05-09T08:00:06.811Z,15.30
2024-05-09T08:02:37.592Z,15.30
2024-05-09T08:05:05.987Z,15.40
2024-05-09T08:07:39.360Z,15.50
2024-05-09T08:10:12.889Z,15.50
2024-05-09T08:12:45.758Z,15.70
2024-05-09T08:15:13.767Z,15.70
2024-05-09T08:17:44.329Z,15.60
2024-05-09T08:20:15.901Z,15.60
2024-05-09T08:22:51.837Z,15.90
2024-05-09T08:25:22.261Z,15.90
2024-05-09T08:27:52.704Z,16.00
2024-05-09T08:30:36.958Z,16.00
2024-05-09T08:33:09.409Z,16.10
2024-05-09T08:35:37.264Z,16.10
2024-05-09T08:38:09.075Z,16.20
2024-05-09T08:40:39.773Z,16.20
2024-05-09T08:43:12.865Z,16.20
2024-05-09T08:45:44.359Z,16.20
2024-05-09T08:48:17.156Z,16.20
2024-05-09T08:50:45.900Z,15.90
2024-05-09T08:53:16.903Z,16.00
2024-05-09T08:55:47.819Z,15.90
2024-05-09T08:58:21.904Z,16.00
2024-05-09T09:00:50.035Z,16.20
2024-05-09T09:03:21.837Z,15.90
2024-05-09T09:05:58.039Z,15.90
2024-05-09T09:08:29.705Z,16.40
2024-05-09T09:11:00.668Z,17.10
2024-05-09T09:13:31.253Z,17.50
2024-05-09T09:15:59.573Z,17.70
2024-05-09T09:18:31.224Z,17.90
2024-05-09T09:20:59.256Z,18.20
2024-05-09T09:23:30.870Z,18.40
2024-05-09T09:26:01.944Z,18.00
2024-05-09T09:28:32.335Z,17.80
2024-05-09T09:31:04.382Z,17.80
2024-05-09T09:33:36.261Z,18.10
2024-05-09T09:36:08.976Z,18.20
2024-05-09T09:38:41.053Z,18.40
2024-05-09T09:41:11.392Z,18.50
2024-05-09T09:43:43.462Z,18.80
2024-05-09T09:46:13.151Z,18.60
2024-05-09T09:48:44.798Z,18.90
2024-05-09T09:51:14.238Z,19.00
2024-05-09T09:53:47.234Z,18.50
2024-05-09T09:56:19.057Z,18.40
2024-05-09T09:58:51.436Z,18.90
2024-05-09T10:01:19.201Z,18.90
2024-05-09T10:03:49.940Z,19.10
2024-05-09T10:06:18.439Z,19.10
2024-05-09T10:08:50.740Z,19.00
2024-05-09T10:11:23.224Z,19.30
2024-05-09T10:13:55.246Z,19.30
2024-05-09T10:16:23.356Z,18.90
2024-05-09T10:18:53.997Z,19.00
2024-05-09T10:21:22.298Z,19.20
2024-05-09T10:24:02.762Z,18.90
2024-05-09T10:26:37.548Z,19.00
2024-05-09T10:29:16.010Z,19.60
2024-05-09T10:31:44.729Z,20.10
2024-05-09T10:34:20.950Z,19.50
2024-05-09T10:36:54.076Z,19.70
2024-05-09T10:39:25.427Z,19.50
2024-05-09T10:41:55.840Z,19.90
2024-05-09T10:44:26.163Z,20.50
2024-05-09T10:46:54.949Z,20.90
2024-05-09T10:49:26.103Z,20.50
2024-05-09T10:51:54.293Z,20.20
2024-05-09T10:54:25.114Z,19.70
2024-05-09T10:57:00.160Z,20.10
2024-05-09T10:59:37.242Z,20.30
2024-05-09T11:02:07.056Z,20.50
2024-05-09T11:04:39.077Z,20.70
2024-05-09T11:07:10.908Z,20.40
2024-05-09T11:09:42.542Z,20.50
2024-05-09T11:12:13.031Z,20.60
2024-05-09T11:14:44.123Z,20.80
2024-05-09T11:17:12.304Z,20.30
2024-05-09T11:19:56.150Z,20.60
2024-05-09T11:22:25.858Z,21.30
2024-05-09T11:25:13.468Z,21.30
2024-05-09T11:27:47.195Z,21.10
2024-05-09T11:30:29.583Z,21.30
2024-05-09T11:33:00.162Z,21.90
2024-05-09T11:35:35.812Z,21.90
2024-05-09T11:38:19.196Z,22.10
2024-05-09T11:40:53.288Z,21.90
2024-05-09T11:43:24.291Z,21.90
2024-05-09T11:45:57.770Z,21.60
2024-05-09T11:48:31.806Z,21.90
2024-05-09T11:51:06.089Z,22.60
2024-05-09T11:53:34.156Z,22.10
2024-05-09T11:56:15.043Z,22.10
2024-05-09T11:58:49.208Z,22.10
2024-05-09T12:01:29.450Z,22.10
2024-05-09T12:03:58.468Z,21.90
2024-05-09T12:06:29.623Z,22.10
2024-05-09T12:09:00.781Z,22.60
2024-05-09T12:11:32.441Z,22.50
2024-05-09T12:14:08.670Z,22.50
2024-05-09T12:16:40.217Z,22.90
2024-05-09T12:19:08.957Z,22.30
2024-05-09T12:21:41.020Z,22.10
2024-05-09T12:24:16.966Z,22.20
2024-05-09T12:26:48.826Z,22.80
2024-05-09T12:29:19.237Z,23.60
2024-05-09T12:31:49.721Z,23.80
2024-05-09T12:34:17.592Z,23.60
2024-05-09T12:36:48.268Z,23.80
2024-05-09T12:39:16.147Z,23.80
2024-05-09T12:41:46.496Z,24.10
2024-05-09T12:44:14.717Z,24.40
2024-05-09T12:46:49.323Z,23.90
2024-05-09T12:49:19.226Z,23.80
2024-05-09T12:51:52.488Z,23.50
2024-05-09T12:54:20.498Z,23.30
2024-05-09T12:56:52.004Z,23.50
2024-05-09T12:59:19.975Z,23.70
2024-05-09T13:01:53.410Z,23.90
2024-05-09T13:04:21.403Z,23.20
2024-05-09T13:06:52.599Z,22.70
2024-05-09T13:09:20.410Z,22.50
2024-05-09T13:11:51.126Z,22.60
2024-05-09T13:14:18.878Z,22.90
2024-05-09T13:16:49.280Z,23.80
2024-05-09T13:19:19.827Z,24.30
2024-05-09T13:21:50.414Z,24.40
2024-05-09T13:24:18.328Z,23.70
2024-05-09T13:26:48.953Z,23.90
2024-05-09T13:29:16.731Z,23.90
2024-05-09T13:31:47.030Z,24.00
2024-05-09T13:34:14.821Z,23.60
2024-05-09T13:36:47.945Z,24.20
2024-05-09T13:39:15.877Z,24.60
2024-05-09T13:41:46.467Z,24.60
2024-05-09T13:44:14.348Z,25.00
2024-05-09T13:46:44.797Z,24.70
2024-05-09T13:49:17.132Z,24.20
2024-05-09T13:51:50.680Z,24.20
2024-05-09T13:54:21.100Z,24.80
2024-05-09T13:56:52.940Z,23.80
2024-05-09T13:59:20.652Z,24.00
2024-05-09T14:01:51.103Z,24.40
2024-05-09T14:04:19.210Z,24.70
2024-05-09T14:06:52.806Z,24.60
2024-05-09T14:09:20.628Z,25.20
2024-05-09T14:11:51.207Z,25.50
2024-05-09T14:14:18.989Z,25.60
2024-05-09T14:16:49.682Z,23.50
2024-05-09T14:19:17.731Z,24.10
2024-05-09T14:21:48.555Z,24.40
2024-05-09T14:24:18.998Z,25.10
2024-05-09T14:26:50.106Z,25.00
2024-05-09T14:29:17.836Z,24.40
2024-05-09T14:31:48.403Z,24.50
2024-05-09T14:34:19.560Z,24.60
2024-05-09T14:36:50.905Z,25.10
2024-05-09T14:39:21.408Z,25.30
2024-05-09T14:41:55.574Z,25.10
2024-05-09T14:44:23.706Z,25.00
2024-05-09T14:46:54.231Z,24.60
2024-05-09T14:49:22.664Z,24.70
2024-05-09T14:51:54.466Z,24.40
2024-05-09T14:54:25.174Z,24.40
2024-05-09T14:57:15.574Z,25.00
2024-05-09T14:59:50.019Z,25.10
2024-05-09T15:02:21.094Z,25.50
2024-05-09T15:04:49.023Z,25.00
2024-05-09T15:07:22.521Z,24.80
2024-05-09T15:10:01.003Z,24.40
2024-05-09T15:12:33.479Z,24.30
2024-05-09T15:15:01.554Z,24.70
2024-05-09T15:17:33.773Z,24.40
2024-05-09T15:20:01.759Z,24.60
2024-05-09T15:22:32.367Z,24.60
2024-05-09T15:25:03.120Z,24.60
2024-05-09T15:27:34.008Z,24.20
2024-05-09T15:30:05.636Z,24.50
2024-05-09T15:32:39.428Z,24.20
2024-05-09T15:35:10.846Z,24.30
2024-05-09T15:37:44.060Z,24.10
2024-05-09T15:40:22.330Z,24.40
2024-05-09T15:43:07.447Z,24.80
2024-05-09T15:45:39.301Z,24.60
2024-05-09T15:48:09.180Z,24.10
2024-05-09T15:50:44.337Z,24.10
2024-05-09T15:53:17.198Z,23.60
2024-05-09T15:55:51.673Z,23.80
2024-05-09T15:58:19.870Z,23.30
2024-05-09T16:00:52.384Z,23.10
2024-05-09T16:03:27.238Z,23.20
2024-05-09T16:05:59.317Z,23.60
2024-05-09T16:08:27.502Z,23.70
2024-05-09T16:11:00.776Z,23.20
2024-05-09T16:13:28.765Z,22.70
2024-05-09T16:15:59.489Z,22.80
2024-05-09T16:18:27.631Z,22.50
2024-05-09T16:21:00.296Z,22.70
2024-05-09T16:23:29.320Z,22.90
2024-05-09T16:26:02.373Z,22.60
2024-05-09T16:28:30.462Z,22.30
2024-05-09T16:31:01.500Z,22.60
2024-05-09T16:33:29.940Z,22.90
2024-05-09T16:36:01.330Z,23.00
2024-05-09T16:38:29.135Z,22.90
2024-05-09T16:41:03.462Z,23.10
2024-05-09T16:43:33.347Z,23.20
2024-05-09T16:46:05.790Z,23.20
2024-05-09T16:48:35.481Z,23.00
2024-05-09T16:51:06.267Z,22.50
2024-05-09T16:53:36.056Z,21.90
2024-05-09T16:56:10.359Z,21.80
2024-05-09T16:58:38.016Z,21.50
2024-05-09T17:01:08.895Z,21.30
2024-05-09T17:03:46.965Z,21.50
2024-05-09T17:06:18.447Z,21.60
2024-05-09T17:08:59.092Z,21.70
2024-05-09T17:11:36.614Z,21.90
2024-05-09T17:14:07.357Z,21.70
2024-05-09T17:16:38.001Z,21.60
2024-05-09T17:19:09.447Z,21.60
2024-05-09T17:21:38.764Z,21.60
2024-05-09T17:24:12.823Z,21.50
2024-05-09T17:26:47.845Z,21.50
2024-05-09T17:29:18.982Z,21.50
2024-05-09T17:31:48.271Z,21.50
2024-05-09T17:34:20.664Z,21.40
2024-05-09T17:36:48.773Z,21.20
2024-05-09T17:39:28.756Z,21.00
2024-05-09T17:41:59.429Z,21.00
2024-05-09T17:44:31.606Z,20.90
2024-05-09T17:47:00.290Z,21.00
2024-05-09T17:49:31.185Z,21.10
2024-05-09T17:51:59.509Z,21.00
2024-05-09T17:54:30.554Z,20.90
2024-05-09T17:57:02.627Z,20.80
2024-05-09T17:59:33.986Z,20.70
2024-05-09T18:02:04.311Z,20.60
2024-05-09T18:04:35.082Z,20.60
2024-05-09T18:07:11.516Z,20.50
2024-05-09T18:09:40.896Z,20.50
2024-05-09T18:12:14.855Z,20.40
2024-05-09T18:14:42.906Z,20.40
2024-05-09T18:17:14.921Z,20.20
2024-05-09T18:19:47.332Z,20.10
2024-05-09T18:22:18.196Z,20.10
2024-05-09T18:24:48.330Z,19.90
2024-05-09T18:27:21.978Z,19.90
2024-05-09T18:29:50.864Z,20.00
2024-05-09T18:32:22.458Z,20.00
2024-05-09T18:34:58.046Z,19.90
2024-05-09T18:37:30.441Z,19.90
2024-05-09T18:39:58.787Z,19.80
2024-05-09T18:42:33.473Z,19.90
2024-05-09T18:45:06.759Z,19.90
2024-05-09T18:47:40.146Z,20.00
2024-05-09T18:50:12.071Z,19.90
2024-05-09T18:52:50.713Z,19.80
2024-05-09T18:55:24.375Z,19.70
2024-05-09T18:57:59.522Z,19.70
2024-05-09T19:00:35.562Z,19.60
2024-05-09T19:03:13.751Z,19.40
2024-05-09T19:05:44.197Z,19.40
2024-05-09T19:08:17.291Z,19.50
2024-05-09T19:10:48.216Z,19.40
2024-05-09T19:13:22.196Z,19.40
2024-05-09T19:15:50.243Z,19.40
2024-05-09T19:18:20.862Z,19.40
2024-05-09T19:20:49.414Z,19.40
2024-05-09T19:23:19.809Z,19.20
2024-05-09T19:25:47.495Z,19.20
2024-05-09T19:28:20.683Z,19.20
2024-05-09T19:30:48.733Z,19.20
2024-05-09T19:33:21.452Z,19.20
2024-05-09T19:35:49.596Z,19.00
2024-05-09T19:38:20.396Z,19.00
2024-05-09T19:40:50.650Z,18.80
2024-05-09T19:43:27.550Z,18.60
2024-05-09T19:45:56.971Z,18.70
2024-05-09T19:48:28.723Z,18.60
2024-05-09T19:50:56.935Z,18.50
2024-05-09T19:53:28.802Z,18.40
2024-05-09T19:55:57.915Z,18.30
2024-05-09T19:58:32.774Z,18.30
2024-05-09T20:01:01.658Z,18.30
2024-05-09T20:03:37.120Z,18.30
2024-05-09T20:06:07.005Z,18.30
2024-05-09T20:08:37.614Z,18.40
2024-05-09T20:11:06.271Z,18.10
2024-05-09T20:13:40.487Z,18.10
2024-05-09T20:16:08.890Z,18.30
2024-05-09T20:18:39.649Z,18.20
2024-05-09T20:21:07.897Z,18.20
2024-05-09T20:23:40.304Z,18.10
2024-05-09T20:26:13.017Z,18.10
2024-05-09T20:28:46.420Z,18.10
2024-05-09T20:31:21.339Z,18.00
2024-05-09T20:33:52.033Z,18.00
2024-05-09T20:36:19.779Z,18.00
2024-05-09T20:38:50.279Z,18.00
2024-05-09T20:41:18.199Z,18.00
2024-05-09T20:43:55.150Z,18.00
2024-05-09T20:46:23.506Z,18.00
2024-05-09T20:48:56.770Z,18.10
2024-05-09T20:51:25.776Z,18.10
2024-05-09T20:53:57.038Z,18.10
2024-05-09T20:56:25.105Z,18.00
2024-05-09T20:58:59.411Z,18.10
2024-05-09T21:01:29.030Z,18.20
2024-05-09T21:04:00.825Z,18.20
2024-05-09T21:06:29.183Z,18.20
2024-05-09T21:08:59.791Z,18.10
2024-05-09T21:11:27.492Z,18.10
2024-05-09T21:14:01.289Z,18.10
2024-05-09T21:16:34.737Z,18.20
2024-05-09T21:19:05.655Z,18.10
2024-05-09T21:21:40.034Z,18.00
2024-05-09T21:24:10.975Z,17.90
2024-05-09T21:26:44.487Z,17.80
2024-05-09T21:29:17.606Z,17.90
2024-05-09T21:31:45.274Z,17.80
2024-05-09T21:34:16.463Z,17.80
2024-05-09T21:36:44.308Z,17.80
2024-05-09T21:39:14.685Z,17.90
2024-05-09T21:41:42.454Z,17.90
2024-05-09T21:44:12.916Z,17.70
2024-05-09T21:46:44.434Z,17.70
2024-05-09T21:49:18.399Z,17.50
2024-05-09T21:51:46.385Z,17.50
2024-05-09T21:54:17.131Z,17.60
2024-05-09T21:56:45.769Z,17.80
2024-05-09T21:59:16.224Z,17.80
2024-05-09T22:01:46.963Z,17.90
2024-05-09T22:04:17.752Z,18.00
2024-05-09T22:06:45.553Z,17.90
2024-05-09T22:09:16.015Z,17.90
2024-05-09T22:11:43.782Z,17.80
2024-05-09T22:14:14.207Z,17.80
2024-05-09T22:16:42.139Z,17.70
2024-05-09T22:19:15.393Z,17.70
2024-05-09T22:21:43.378Z,17.60
2024-05-09T22:24:13.954Z,17.50
2024-05-09T22:26:42.053Z,17.50
2024-05-09T22:29:12.413Z,17.50
2024-05-09T22:31:40.027Z,17.50
2024-05-09T22:34:10.606Z,17.50
2024-05-09T22:36:41.072Z,17.40
2024-05-09T22:39:12.036Z,17.50
2024-05-09T22:41:41.107Z,17.50
2024-05-09T22:44:11.678Z,17.40
2024-05-09T22:46:39.452Z,17.40
2024-05-09T22:49:10.125Z,17.40
2024-05-09T22:51:41.363Z,17.40
2024-05-09T22:54:11.701Z,17.50
2024-05-09T22:56:39.699Z,17.60
2024-05-09T22:59:10.028Z,17.50
2024-05-09T23:01:38.027Z,17.50
2024-05-09T23:04:08.939Z,17.50
2024-05-09T23:06:40.543Z,17.50
2024-05-09T23:09:13.739Z,17.40
2024-05-09T23:11:42.037Z,17.20
2024-05-09T23:14:12.379Z,17.00
2024-05-09T23:16:40.240Z,16.80
2024-05-09T23:19:10.857Z,16.60
2024-05-09T23:21:39.913Z,16.70
2024-05-09T23:24:13.169Z,16.90
2024-05-09T23:26:43.571Z,17.00
2024-05-09T23:29:14.576Z,17.00
2024-05-09T23:31:42.300Z,17.00
2024-05-09T23:34:12.971Z,17.10
2024-05-09T23:36:41.033Z,17.20
2024-05-09T23:39:14.222Z,17.10
2024-05-09T23:41:41.884Z,17.00
2024-05-09T23:44:12.387Z,17.10
2024-05-09T23:46:40.110Z,17.10
2024-05-09T23:49:11.287Z,17.20
2024-05-09T23:51:39.297Z,17.20
2024-05-09T23:54:09.875Z,17.20
2024-05-09T23:56:40.687Z,17.10
2024-05-09T23:59:11.241Z,17.00
